Time;durP1;ratioP1;P1;durP2;ratioP2;P2;SDS_P1;SDS_P2;PMS_P1;PMS_P2;Temp;Humidity;BMP_temperature;BMP_pressure;BME280_temperature;BME280_humidity;BME280_pressure;Samples;Min_cycle;Max_cycle;Signal;HPM_P1;HPM_P2
2022/07/23 00:00:05;;;;;;;10.55;6.28;;;27.70;77.10;;;;;;5036118;28;20543;-72
2022/07/23 00:02:31;;;;;;;13.25;6.68;;;27.70;77.10;;;;;;5036597;28;20055;-72
2022/07/23 00:04:56;;;;;;;13.23;6.30;;;27.60;77.30;;;;;;5038731;28;20034;-72
2022/07/23 00:07:22;;;;;;;10.13;7.10;;;27.60;77.40;;;;;;5036738;28;20037;-72
2022/07/23 00:09:48;;;;;;;11.98;6.68;;;27.60;77.30;;;;;;5028616;28;20155;-72
2022/07/23 00:12:13;;;;;;;8.20;6.50;;;27.60;77.40;;;;;;5022413;28;20034;-71
2022/07/23 00:14:39;;;;;;;10.43;6.72;;;27.50;77.50;;;;;;5028540;28;20041;-72
2022/07/23 00:17:05;;;;;;;8.20;6.22;;;27.50;77.40;;;;;;5031722;28;20116;-72
2022/07/23 00:19:30;;;;;;;8.70;6.50;;;27.40;77.60;;;;;;5026360;28;20034;-71
2022/07/23 00:21:56;;;;;;;7.65;5.65;;;27.30;77.80;;;;;;5043921;28;20055;-72
2022/07/23 00:24:21;;;;;;;13.20;6.82;;;27.30;77.90;;;;;;5030747;28;20040;-71
2022/07/23 00:26:47;;;;;;;9.80;7.20;;;27.10;78.00;;;;;;5031815;28;20128;-72
2022/07/23 00:29:13;;;;;;;9.35;6.65;;;27.10;78.10;;;;;;5018013;28;20457;-72
2022/07/23 00:31:38;;;;;;;13.10;6.80;;;27.00;78.40;;;;;;5036381;28;21152;-72
2022/07/23 00:34:04;;;;;;;10.38;5.95;;;26.80;78.60;;;;;;5032965;28;20646;-71
2022/07/23 00:36:31;;;;;;;11.88;6.25;;;26.80;78.90;;;;;;5043713;28;20037;-72
2022/07/23 00:38:56;;;;;;;7.88;6.53;;;26.60;79.00;;;;;;5034518;28;20112;-71
2022/07/23 00:41:22;;;;;;;8.32;6.25;;;26.80;78.80;;;;;;5037215;28;20456;-72
2022/07/23 00:43:48;;;;;;;8.27;6.25;;;26.80;78.70;;;;;;5047059;28;20398;-71
2022/07/23 00:46:22;;;;;;;11.30;7.00;;;26.90;78.60;;;;;;5029320;28;20034;-72
2022/07/23 00:48:48;;;;;;;9.88;7.00;;;26.80;78.70;;;;;;5033017;28;20033;-71
2022/07/23 00:51:16;;;;;;;9.10;6.72;;;26.80;78.80;;;;;;5035445;28;20437;-72
2022/07/23 00:53:42;;;;;;;9.95;7.55;;;26.70;79.00;;;;;;5037356;28;20033;-72
2022/07/23 00:56:08;;;;;;;11.95;6.68;;;26.60;79.30;;;;;;5044375;28;20040;-72
2022/07/23 00:58:36;;;;;;;10.95;7.15;;;26.60;79.30;;;;;;5042259;28;20037;-72
2022/07/23 01:01:02;;;;;;;10.40;6.18;;;26.50;79.40;;;;;;5040765;28;20079;-71
2022/07/23 01:03:28;;;;;;;9.00;6.13;;;26.40;79.60;;;;;;5042456;28;20081;-71
2022/07/23 01:05:53;;;;;;;11.32;6.97;;;26.30;79.80;;;;;;5033670;28;20456;-72
2022/07/23 01:08:19;;;;;;;8.63;6.50;;;26.30;79.80;;;;;;5038456;28;20037;-71
2022/07/23 01:10:49;;;;;;;9.25;6.63;;;26.40;79.60;;;;;;5028385;28;20416;-72
2022/07/23 01:13:14;;;;;;;11.02;7.00;;;26.40;79.40;;;;;;5032244;28;20038;-71
2022/07/23 01:15:40;;;;;;;14.20;6.78;;;26.50;79.30;;;;;;5035931;28;20040;-71
2022/07/23 01:18:07;;;;;;;11.05;6.93;;;26.60;79.10;;;;;;5036649;28;20033;-71
2022/07/23 01:20:34;;;;;;;10.63;7.07;;;26.50;79.10;;;;;;5048002;28;20174;-71
2022/07/23 01:23:00;;;;;;;11.57;6.65;;;26.40;79.40;;;;;;5034758;28;20036;-71
2022/07/23 01:25:26;;;;;;;12.52;7.13;;;26.40;79.70;;;;;;5031675;28;20030;-72
2022/07/23 01:27:53;;;;;;;9.70;6.53;;;26.30;79.70;;;;;;5032558;28;20036;-72
2022/07/23 01:30:19;;;;;;;9.63;6.60;;;26.30;79.60;;;;;;5030593;28;20494;-72
2022/07/23 01:32:45;;;;;;;13.68;6.72;;;26.40;79.50;;;;;;5040606;28;20037;-72
2022/07/23 01:35:11;;;;;;;10.82;6.82;;;26.40;79.40;;;;;;5029972;28;20083;-71
2022/07/23 01:37:37;;;;;;;8.30;5.93;;;26.40;79.30;;;;;;5032282;28;20434;-71
2022/07/23 01:40:04;;;;;;;9.73;6.55;;;26.40;79.10;;;;;;5029313;28;20472;-71
2022/07/23 01:42:30;;;;;;;9.35;6.60;;;26.60;78.90;;;;;;5032601;28;20029;-72
2022/07/23 01:44:56;;;;;;;10.65;6.60;;;26.50;79.20;;;;;;5041579;28;20029;-71
2022/07/23 01:47:22;;;;;;;11.32;6.68;;;26.60;78.70;;;;;;5033215;28;20104;-71
2022/07/23 01:49:47;;;;;;;9.30;7.10;;;26.70;78.60;;;;;;5040850;28;20044;-71
2022/07/23 01:52:13;;;;;;;8.98;6.65;;;26.60;79.10;;;;;;5046611;28;20033;-72
2022/07/23 01:54:39;;;;;;;10.35;6.60;;;26.40;79.30;;;;;;5031262;28;20033;-72
2022/07/23 01:57:05;;;;;;;9.30;6.63;;;26.30;79.60;;;;;;5034016;28;20028;-72
2022/07/23 01:59:31;;;;;;;11.30;7.75;;;26.20;80.30;;;;;;5035933;28;20479;-72
2022/07/23 02:01:57;;;;;;;10.48;6.97;;;26.10;80.10;;;;;;5031786;28;20026;-72
2022/07/23 02:04:24;;;;;;;11.45;6.72;;;26.10;80.20;;;;;;5050511;28;20025;-72
2022/07/23 02:06:50;;;;;;;10.57;6.88;;;26.00;80.30;;;;;;5032037;28;20029;-72
2022/07/23 02:09:16;;;;;;;10.23;7.13;;;26.00;80.50;;;;;;5030985;28;20036;-71
2022/07/23 02:11:42;;;;;;;9.02;6.70;;;25.90;80.50;;;;;;5035464;28;20033;-72
2022/07/23 02:14:08;;;;;;;10.20;7.15;;;26.00;80.30;;;;;;5045930;28;20041;-71
2022/07/23 02:16:34;;;;;;;8.60;5.82;;;26.10;80.40;;;;;;5039524;28;20029;-72
2022/07/23 02:18:59;;;;;;;10.57;6.60;;;26.00;80.50;;;;;;5025322;28;20066;-72
2022/07/23 02:21:25;;;;;;;13.25;6.80;;;26.00;80.50;;;;;;5048722;28;20520;-72
2022/07/23 02:23:51;;;;;;;9.50;6.40;;;26.10;80.50;;;;;;5034543;28;20033;-71
2022/07/23 02:26:16;;;;;;;9.73;6.75;;;26.20;80.30;;;;;;5030354;28;20728;-71
2022/07/23 02:28:42;;;;;;;10.02;6.68;;;26.20;80.10;;;;;;5030325;28;20035;-72
2022/07/23 02:31:07;;;;;;;10.35;6.50;;;26.30;79.90;;;;;;5031828;28;20076;-71
2022/07/23 02:33:34;;;;;;;8.90;7.18;;;26.40;79.90;;;;;;5044992;28;20095;-72
2022/07/23 02:36:00;;;;;;;11.32;6.40;;;26.30;80.00;;;;;;5031547;28;20037;-71
2022/07/23 02:38:26;;;;;;;8.77;7.00;;;26.30;80.10;;;;;;5022194;28;20532;-71
2022/07/23 02:40:52;;;;;;;11.90;6.05;;;26.20;80.20;;;;;;5028514;28;20033;-71
2022/07/23 02:43:17;;;;;;;9.13;6.93;;;26.30;80.30;;;;;;5039444;28;20033;-71
2022/07/23 02:45:43;;;;;;;9.52;6.82;;;26.30;80.20;;;;;;5019067;28;20038;-71
2022/07/23 02:48:08;;;;;;;10.80;6.40;;;26.30;80.10;;;;;;5020942;28;20061;-71
2022/07/23 02:50:34;;;;;;;11.77;6.85;;;26.30;79.90;;;;;;5030622;28;20108;-71
2022/07/23 02:53:00;;;;;;;9.65;6.80;;;26.40;80.20;;;;;;5022642;28;20037;-71
2022/07/23 02:55:26;;;;;;;8.02;6.55;;;26.30;80.20;;;;;;5015637;28;20416;-71
2022/07/23 02:57:52;;;;;;;8.88;6.85;;;26.20;81.10;;;;;;5031516;28;20590;-72
2022/07/23 03:00:18;;;;;;;11.60;7.13;;;26.10;80.40;;;;;;5037620;28;20100;-70
2022/07/23 03:02:43;;;;;;;11.13;6.90;;;26.10;80.40;;;;;;5028035;28;20052;-70
2022/07/23 03:05:09;;;;;;;11.00;6.38;;;25.90;80.80;;;;;;5028859;28;20029;-70
2022/07/23 03:07:35;;;;;;;8.18;6.50;;;26.00;80.80;;;;;;5025610;28;20026;-70
2022/07/23 03:10:01;;;;;;;9.68;6.32;;;26.00;80.70;;;;;;5035207;28;20605;-70
2022/07/23 03:12:27;;;;;;;11.23;7.05;;;26.10;80.60;;;;;;5029249;28;20041;-70
2022/07/23 03:14:52;;;;;;;9.35;7.15;;;26.00;80.80;;;;;;5016598;28;20036;-70
2022/07/23 03:17:18;;;;;;;8.95;6.95;;;26.00;80.80;;;;;;5032419;28;20026;-70
2022/07/23 03:19:44;;;;;;;9.68;7.25;;;25.90;81.10;;;;;;5023249;28;20021;-70
2022/07/23 03:22:09;;;;;;;9.50;7.68;;;25.80;81.40;;;;;;5033850;28;20447;-70
2022/07/23 03:24:53;;;;;;;11.70;7.70;;;25.80;81.50;;;;;;5044238;28;20032;-70
2022/07/23 03:27:20;;;;;;;11.55;6.72;;;25.80;81.50;;;;;;5028066;28;20048;-70
2022/07/23 03:29:45;;;;;;;9.55;6.68;;;25.70;81.80;;;;;;5038515;28;20471;-70
2022/07/23 03:32:11;;;;;;;9.60;6.40;;;25.70;81.90;;;;;;5028190;28;20029;-70
2022/07/23 03:34:38;;;;;;;12.70;6.88;;;25.70;81.80;;;;;;5021698;28;20043;-70
2022/07/23 03:37:04;;;;;;;10.23;7.13;;;25.80;81.50;;;;;;5036983;28;20414;-70
2022/07/23 03:39:30;;;;;;;11.85;7.93;;;25.80;81.10;;;;;;5024901;28;20033;-70
2022/07/23 03:41:56;;;;;;;13.10;7.45;;;25.90;80.90;;;;;;5039749;28;20029;-70
2022/07/23 03:44:21;;;;;;;11.50;6.55;;;26.10;80.70;;;;;;5038090;28;20026;-70
2022/07/23 03:46:47;;;;;;;7.97;6.93;;;26.10;80.70;;;;;;5033962;28;20029;-70
2022/07/23 03:49:13;;;;;;;9.38;6.68;;;26.20;80.50;;;;;;5023680;28;20033;-70
2022/07/23 03:51:38;;;;;;;10.70;7.38;;;26.30;80.20;;;;;;5034696;28;20029;-70
2022/07/23 03:54:04;;;;;;;9.98;7.30;;;26.30;80.20;;;;;;5036285;28;20049;-70
2022/07/23 03:56:30;;;;;;;9.45;6.55;;;26.40;80.20;;;;;;5035040;28;20033;-70
2022/07/23 03:58:56;;;;;;;9.82;7.75;;;26.30;80.50;;;;;;5030763;28;20494;-70
2022/07/23 04:01:21;;;;;;;10.77;7.05;;;26.20;80.60;;;;;;5024096;28;20135;-70
2022/07/23 04:03:47;;;;;;;11.13;7.93;;;26.20;80.50;;;;;;5009670;28;20028;-70
2022/07/23 04:06:13;;;;;;;15.18;7.70;;;26.10;80.40;;;;;;5022572;28;20060;-70
2022/07/23 04:08:38;;;;;;;8.52;6.93;;;26.20;80.50;;;;;;5029957;28;20021;-70
2022/07/23 04:11:04;;;;;;;11.27;7.32;;;26.20;80.70;;;;;;5026503;28;20528;-70
2022/07/23 04:13:32;;;;;;;10.35;7.07;;;26.20;81.10;;;;;;5035932;28;20386;-72
2022/07/23 04:15:58;;;;;;;11.95;7.38;;;26.10;81.50;;;;;;5034084;28;20067;-70
2022/07/23 04:18:24;;;;;;;10.25;7.20;;;26.00;81.30;;;;;;5032003;28;20605;-70
2022/07/23 04:20:51;;;;;;;10.57;6.72;;;26.00;81.70;;;;;;5028015;28;20049;-70
2022/07/23 04:23:17;;;;;;;10.23;6.88;;;26.20;81.20;;;;;;5041570;28;20596;-70
2022/07/23 04:25:42;;;;;;;10.13;6.68;;;26.20;81.20;;;;;;5026751;28;20037;-70
2022/07/23 04:28:08;;;;;;;9.23;7.25;;;26.20;81.40;;;;;;5024153;28;20391;-71
2022/07/23 04:30:34;;;;;;;8.55;6.80;;;26.20;81.50;;;;;;5027665;28;20167;-71
2022/07/23 04:33:00;;;;;;;8.98;6.38;;;26.20;81.60;;;;;;5031981;28;20169;-70
2022/07/23 04:35:25;;;;;;;8.75;6.57;;;26.20;82.10;;;;;;5041172;28;20033;-70
2022/07/23 04:37:51;;;;;;;10.95;7.60;;;26.20;81.30;;;;;;5035569;28;20040;-69
2022/07/23 04:40:17;;;;;;;10.20;7.18;;;26.10;81.50;;;;;;5039301;28;20033;-70
2022/07/23 04:42:43;;;;;;;13.82;7.43;;;26.00;81.50;;;;;;5044203;28;20039;-70
2022/07/23 04:45:09;;;;;;;9.75;6.78;;;26.00;81.60;;;;;;5024631;28;20200;-70
2022/07/23 04:47:34;;;;;;;10.68;7.22;;;26.10;81.50;;;;;;5027467;28;20044;-70
2022/07/23 04:50:00;;;;;;;10.45;6.05;;;26.20;81.10;;;;;;5030754;28;20033;-70
2022/07/23 04:52:26;;;;;;;11.43;7.18;;;26.20;81.00;;;;;;5031162;28;20040;-70
2022/07/23 04:54:51;;;;;;;8.48;6.45;;;26.40;80.90;;;;;;5029436;28;20112;-70
2022/07/23 04:57:17;;;;;;;10.55;7.15;;;26.30;81.30;;;;;;5027232;28;20491;-70
2022/07/23 04:59:43;;;;;;;10.40;7.40;;;26.30;81.40;;;;;;5039714;28;20088;-70
2022/07/23 05:02:08;;;;;;;10.07;7.10;;;26.20;81.50;;;;;;5027497;28;20033;-70
2022/07/23 05:04:34;;;;;;;11.15;7.80;;;26.30;81.00;;;;;;5030331;28;20033;-70
2022/07/23 05:07:00;;;;;;;8.30;6.68;;;26.30;80.80;;;;;;5028417;28;20052;-70
2022/07/23 05:09:26;;;;;;;8.98;6.80;;;26.40;80.70;;;;;;5026620;28;20036;-70
2022/07/23 05:11:51;;;;;;;9.48;7.18;;;26.30;81.00;;;;;;5036429;28;20606;-70
2022/07/23 05:14:17;;;;;;;10.38;7.72;;;26.30;80.60;;;;;;5033997;28;20480;-70
2022/07/23 05:16:43;;;;;;;9.05;6.80;;;26.30;80.60;;;;;;5033712;28;20482;-70
2022/07/23 05:19:08;;;;;;;9.55;6.95;;;26.40;80.40;;;;;;5031231;28;20064;-71
2022/07/23 05:21:34;;;;;;;9.10;6.93;;;26.40;79.80;;;;;;5031735;28;20128;-70
2022/07/23 05:24:00;;;;;;;9.95;6.35;;;26.40;80.40;;;;;;5038869;28;20112;-70
2022/07/23 05:26:25;;;;;;;17.15;7.38;;;26.40;79.70;;;;;;5024830;28;20032;-70
2022/07/23 05:28:51;;;;;;;8.00;5.70;;;26.50;79.40;;;;;;5031955;28;20034;-70
2022/07/23 05:31:17;;;;;;;11.55;6.13;;;26.50;79.10;;;;;;5034295;28;20121;-70
2022/07/23 05:33:43;;;;;;;9.02;6.45;;;26.50;79.10;;;;;;5035187;28;20044;-70
2022/07/23 05:36:09;;;;;;;8.27;5.93;;;26.60;79.50;;;;;;5028065;28;20068;-70
2022/07/23 05:38:35;;;;;;;13.38;5.70;;;26.50;80.10;;;;;;5031634;28;20032;-70
2022/07/23 05:41:01;;;;;;;9.32;4.93;;;26.50;79.30;;;;;;5029928;28;20041;-70
2022/07/23 05:43:27;;;;;;;9.32;4.57;;;26.60;79.10;;;;;;5020424;28;20479;-70
2022/07/23 05:45:53;;;;;;;9.55;4.53;;;26.40;79.10;;;;;;5026596;28;20032;-71
2022/07/23 05:48:19;;;;;;;9.20;3.70;;;26.60;79.40;;;;;;5034280;28;20036;-70
2022/07/23 05:50:46;;;;;;;4.88;3.20;;;26.40;79.10;;;;;;5023032;28;20476;-70
2022/07/23 05:53:11;;;;;;;10.93;3.30;;;26.30;79.10;;;;;;5017504;28;20030;-71
2022/07/23 05:55:37;;;;;;;4.80;2.70;;;26.20;78.90;;;;;;5033307;28;20356;-71
2022/07/23 05:58:03;;;;;;;9.02;2.22;;;26.10;78.50;;;;;;5033106;28;20041;-70
2022/07/23 06:00:29;;;;;;;5.65;2.70;;;26.10;78.40;;;;;;5026673;28;20064;-70
2022/07/23 06:02:54;;;;;;;5.53;2.20;;;26.00;79.00;;;;;;5035628;28;20084;-70
2022/07/23 06:05:20;;;;;;;6.20;2.28;;;26.20;78.60;;;;;;5029658;28;20087;-71
2022/07/23 06:07:46;;;;;;;7.03;2.10;;;26.00;78.60;;;;;;5024661;28;20033;-70
2022/07/23 06:10:12;;;;;;;6.55;1.92;;;26.00;78.20;;;;;;5023230;28;20105;-70
2022/07/23 06:12:37;;;;;;;6.20;2.15;;;26.00;78.00;;;;;;5019907;28;20072;-73
2022/07/23 06:15:04;;;;;;;3.08;1.60;;;25.90;77.50;;;;;;5020372;28;20033;-70
2022/07/23 06:17:30;;;;;;;3.40;1.55;;;25.90;76.80;;;;;;5019393;28;20038;-72
2022/07/23 06:19:56;;;;;;;11.75;2.72;;;26.00;77.20;;;;;;5016761;28;20036;-72
2022/07/23 06:22:22;;;;;;;2.60;1.40;;;26.20;77.20;;;;;;5021981;28;20105;-74
2022/07/23 06:24:48;;;;;;;3.22;1.42;;;25.90;76.60;;;;;;5027137;28;20029;-72
2022/07/23 06:27:14;;;;;;;3.97;1.45;;;26.00;76.20;;;;;;5013976;28;20703;-73
2022/07/23 06:29:40;;;;;;;2.58;1.38;;;26.00;76.10;;;;;;5028983;28;20084;-72
2022/07/23 06:32:07;;;;;;;3.83;1.40;;;26.10;76.50;;;;;;5032716;28;20223;-73
2022/07/23 06:34:33;;;;;;;3.75;1.50;;;26.30;76.30;;;;;;5012266;28;20045;-72
2022/07/23 06:36:59;;;;;;;3.95;1.35;;;26.20;76.70;;;;;;5022283;28;20034;-72
2022/07/23 06:39:25;;;;;;;5.20;1.30;;;26.30;76.40;;;;;;5029252;28;20142;-73
2022/07/23 06:41:51;;;;;;;5.70;1.50;;;26.50;76.30;;;;;;5025883;28;20069;-72
2022/07/23 06:44:17;;;;;;;4.15;1.77;;;26.60;76.50;;;;;;5023142;28;20111;-71
2022/07/23 06:46:42;;;;;;;6.43;1.70;;;26.70;76.10;;;;;;5024039;28;20037;-72
2022/07/23 06:49:08;;;;;;;3.33;1.30;;;26.90;75.80;;;;;;5020410;28;20032;-72
2022/07/23 06:51:34;;;;;;;4.32;1.50;;;26.90;75.40;;;;;;5018692;28;20036;-72
2022/07/23 06:54:00;;;;;;;3.72;1.40;;;27.00;75.20;;;;;;5015445;28;20113;-72
2022/07/23 06:56:25;;;;;;;3.38;1.23;;;27.00;75.00;;;;;;5016406;28;20667;-72
2022/07/23 06:58:51;;;;;;;2.33;1.02;;;27.00;75.10;;;;;;5023248;28;20029;-72
2022/07/23 07:01:17;;;;;;;3.28;1.13;;;26.90;75.00;;;;;;5012913;28;20408;-72
2022/07/23 07:03:43;;;;;;;2.45;1.40;;;27.10;75.00;;;;;;5024611;28;20130;-72
2022/07/23 07:06:09;;;;;;;2.83;0.88;;;27.30;74.80;;;;;;5016568;28;20025;-72
2022/07/23 07:08:34;;;;;;;8.98;1.27;;;27.20;74.50;;;;;;5022400;28;20442;-72
2022/07/23 07:11:00;;;;;;;2.17;1.13;;;27.40;74.60;;;;;;5011168;28;20191;-72
2022/07/23 07:13:26;;;;;;;2.22;1.20;;;27.60;74.30;;;;;;5014325;28;20185;-72
2022/07/23 07:15:51;;;;;;;5.38;0.93;;;27.70;74.30;;;;;;5019111;28;20035;-72
2022/07/23 07:18:17;;;;;;;3.40;1.30;;;28.10;73.80;;;;;;5016692;28;20375;-72
2022/07/23 07:20:43;;;;;;;3.15;1.30;;;27.90;74.90;;;;;;5017241;28;20049;-72
2022/07/23 07:23:08;;;;;;;4.93;1.20;;;28.00;74.30;;;;;;5021417;28;20029;-72
2022/07/23 07:25:34;;;;;;;4.95;1.45;;;28.30;74.40;;;;;;5016998;28;20045;-72
2022/07/23 07:28:00;;;;;;;3.60;1.38;;;28.30;73.70;;;;;;5021499;28;20033;-72
2022/07/23 07:30:26;;;;;;;10.23;2.40;;;28.70;73.70;;;;;;5013289;28;20104;-72
2022/07/23 07:32:52;;;;;;;3.47;1.48;;;29.30;73.60;;;;;;5017413;28;20188;-72
2022/07/23 07:35:17;;;;;;;10.07;1.40;;;30.10;73.20;;;;;;5017498;28;20075;-72
2022/07/23 07:37:43;;;;;;;1.70;0.90;;;30.30;71.10;;;;;;5019322;28;20022;-72
2022/07/23 07:40:09;;;;;;;4.40;1.58;;;29.50;72.40;;;;;;5018802;28;20540;-72
2022/07/23 07:42:43;;;;;;;3.78;1.10;;;29.80;72.50;;;;;;5021938;28;20029;-73
2022/07/23 07:45:09;;;;;;;7.00;2.03;;;30.70;71.40;;;;;;5008554;28;20585;-72
2022/07/23 07:47:34;;;;;;;36.80;3.03;;;30.60;72.00;;;;;;5018941;28;20028;-72
2022/07/23 07:50:00;;;;;;;2.45;0.98;;;30.30;71.90;;;;;;5022929;28;20399;-72
2022/07/23 07:52:26;;;;;;;5.93;1.40;;;28.80;73.10;;;;;;5027224;28;20489;-72
2022/07/23 07:54:52;;;;;;;3.97;1.42;;;28.30;74.30;;;;;;5032020;28;20040;-72
2022/07/23 07:57:17;;;;;;;11.73;1.83;;;27.90;74.90;;;;;;5023944;28;20119;-72
2022/07/23 07:59:43;;;;;;;10.05;1.60;;;28.50;74.60;;;;;;5026100;28;20053;-72
2022/07/23 08:02:08;;;;;;;4.13;1.85;;;28.90;74.00;;;;;;5018080;28;20062;-72
2022/07/23 08:04:34;;;;;;;9.35;1.63;;;29.90;72.20;;;;;;5026756;28;20463;-73
2022/07/23 08:07:00;;;;;;;2.63;1.25;;;30.60;72.00;;;;;;5016711;28;20224;-72
2022/07/23 08:09:25;;;;;;;2.88;1.27;;;31.00;71.30;;;;;;5019577;28;20116;-72
2022/07/23 08:11:51;;;;;;;4.03;1.30;;;30.10;72.80;;;;;;5022431;28;20041;-72
2022/07/23 08:14:17;;;;;;;4.32;1.80;;;29.30;72.80;;;;;;5020676;28;20040;-72
2022/07/23 08:16:43;;;;;;;3.70;1.45;;;28.30;75.10;;;;;;5022166;28;20082;-72
2022/07/23 08:19:09;;;;;;;3.10;1.40;;;27.90;75.90;;;;;;5019755;28;20045;-72
2022/07/23 08:21:35;;;;;;;3.72;1.85;;;27.70;76.20;;;;;;5027819;28;20124;-72
2022/07/23 08:24:00;;;;;;;3.30;1.70;;;27.40;76.70;;;;;;5021828;28;20512;-72
2022/07/23 08:26:26;;;;;;;10.57;1.95;;;27.20;77.00;;;;;;5015188;28;20082;-72
2022/07/23 08:28:51;;;;;;;2.88;1.77;;;27.20;76.80;;;;;;5008650;28;20029;-72
2022/07/23 08:31:18;;;;;;;3.28;1.50;;;27.10;76.50;;;;;;5014667;28;20041;-72
2022/07/23 08:33:44;;;;;;;3.25;1.42;;;27.30;76.60;;;;;;5016365;28;20100;-72
2022/07/23 08:36:09;;;;;;;4.72;1.65;;;27.60;76.50;;;;;;5011697;28;20029;-72
2022/07/23 08:38:35;;;;;;;3.22;1.55;;;28.00;76.80;;;;;;5009315;28;20380;-72
2022/07/23 08:41:02;;;;;;;3.10;1.70;;;28.10;76.70;;;;;;5011516;28;20042;-72
2022/07/23 08:43:29;;;;;;;5.18;1.92;;;28.20;76.20;;;;;;5021130;28;20349;-72
2022/07/23 08:45:56;;;;;;;6.88;2.30;;;28.00;76.40;;;;;;5025443;28;20116;-72
2022/07/23 08:48:25;;;;;;;5.80;1.83;;;27.80;77.00;;;;;;5023780;28;20541;-72
2022/07/23 08:50:52;;;;;;;9.02;1.65;;;27.90;76.90;;;;;;5024724;28;20041;-72
2022/07/23 08:53:20;;;;;;;5.28;1.90;;;27.80;76.90;;;;;;5025503;28;20040;-72
2022/07/23 08:55:47;;;;;;;4.53;1.67;;;28.30;76.70;;;;;;5025349;28;20112;-72
2022/07/23 08:58:14;;;;;;;9.48;2.40;;;28.40;76.30;;;;;;5025859;28;20597;-73
2022/07/23 09:00:40;;;;;;;3.97;1.80;;;28.30;76.10;;;;;;5016039;28;20045;-72
2022/07/23 09:03:05;;;;;;;3.13;1.80;;;28.30;75.90;;;;;;5014777;28;21079;-72
2022/07/23 09:05:31;;;;;;;4.63;2.33;;;28.60;76.30;;;;;;5020247;28;20375;-72
2022/07/23 09:08:09;;;;;;;2.95;1.60;;;29.20;76.10;;;;;;5012583;28;20357;-72
2022/07/23 09:10:45;;;;;;;4.38;1.50;;;29.20;75.00;;;;;;5011584;28;20041;-72
2022/07/23 09:13:31;;;;;;;3.55;1.65;;;29.30;74.80;;;;;;5013576;28;20045;-71
2022/07/23 09:16:10;;;;;;;3.10;1.70;;;29.20;74.90;;;;;;5007864;28;20103;-72
2022/07/23 09:18:43;;;;;;;6.55;2.08;;;29.20;74.90;;;;;;5014027;28;20135;-72
2022/07/23 09:21:19;;;;;;;6.70;2.10;;;29.30;74.90;;;;;;5010621;28;20042;-71
2022/07/23 09:24:03;;;;;;;29.30;3.58;;;29.40;75.10;;;;;;5012617;28;20604;-73
2022/07/23 09:26:31;;;;;;;;;;;29.50;74.30;;;;;;5013021;28;20029;-72
2022/07/23 09:29:24;;;;;;;4.95;2.25;;;29.60;75.20;;;;;;5016338;28;19928;-72
2022/07/23 09:32:02;;;;;;;3.47;1.80;;;30.00;74.60;;;;;;5007698;28;20030;-72
2022/07/23 09:34:35;;;;;;;3.70;2.17;;;29.80;74.40;;;;;;5022246;28;20037;-72
2022/07/23 09:37:18;;;;;;;3.58;1.88;;;30.20;75.00;;;;;;5017843;28;20025;-72
2022/07/23 09:39:47;;;;;;;14.20;1.97;;;30.10;73.70;;;;;;5027238;28;20048;-72
2022/07/23 09:42:21;;;;;;;2.90;1.83;;;30.00;74.00;;;;;;5023859;28;20028;-71
2022/07/23 09:44:52;;;;;;;5.88;2.40;;;29.90;74.60;;;;;;5008123;28;20072;-72
2022/07/23 09:47:19;;;;;;;6.43;1.85;;;29.70;74.20;;;;;;5019797;28;20095;-72
2022/07/23 09:50:19;;;;;;;4.88;1.70;;;29.60;74.90;;;;;;5019545;28;20032;-72
2022/07/23 09:52:48;;;;;;;2.42;1.27;;;29.80;74.70;;;;;;5018454;28;20042;-72
2022/07/23 09:55:14;;;;;;;2.60;1.40;;;30.00;74.80;;;;;;5018940;28;20537;-73
2022/07/23 09:57:41;;;;;;;7.00;2.25;;;30.00;74.60;;;;;;5025772;28;20031;-73
2022/07/23 10:00:10;;;;;;;3.40;1.80;;;30.10;74.20;;;;;;5023922;28;20037;-73
2022/07/23 10:02:36;;;;;;;3.65;1.58;;;30.00;74.00;;;;;;5026469;28;20017;-73
2022/07/23 10:05:03;;;;;;;5.68;2.72;;;30.10;73.80;;;;;;5025838;28;20065;-73
2022/07/23 10:07:33;;;;;;;7.47;1.80;;;30.00;72.90;;;;;;5016022;28;20124;-73
2022/07/23 10:10:00;;;;;;;3.03;1.52;;;29.90;73.20;;;;;;5023541;28;20033;-73
2022/07/23 10:15:10;;;;;;;9.63;1.75;;;30.40;72.90;;;;;;5021862;28;20079;-73
2022/07/23 10:17:36;;;;;;;7.72;1.58;;;29.90;72.60;;;;;;5024481;28;20025;-73
2022/07/23 10:20:03;;;;;;;4.68;1.40;;;29.80;72.30;;;;;;5023933;28;20029;-73
2022/07/23 10:22:33;;;;;;;4.57;1.58;;;29.90;72.00;;;;;;5019276;28;20392;-73
2022/07/23 10:25:07;;;;;;;5.25;1.48;;;30.20;71.80;;;;;;5018698;28;20033;-73
2022/07/23 10:28:12;;;;;;;7.88;1.33;;;30.10;71.80;;;;;;5024880;28;20053;-74
2022/07/23 10:30:57;;;;;;;7.60;1.45;;;30.30;71.80;;;;;;5018305;28;20030;-73
2022/07/23 10:34:10;;;;;;;2.55;1.27;;;30.30;71.20;;;;;;5024572;28;20033;-73
2022/07/23 10:36:48;;;;;;;2.43;0.97;;;30.60;71.00;;;;;;5018741;28;20131;-71
2022/07/23 10:39:17;;;;;;;3.90;1.30;;;30.90;71.00;;;;;;5018999;28;20477;-72
2022/07/23 10:41:43;;;;;;;2.17;1.15;;;30.80;71.20;;;;;;5010183;28;20034;-74
2022/07/23 10:44:17;;;;;;;4.47;1.45;;;30.90;71.00;;;;;;5008895;28;20044;-71
2022/07/23 10:49:48;;;;;;;3.08;1.35;;;30.60;71.40;;;;;;5021320;28;20056;-71
2022/07/23 10:52:14;;;;;;;2.70;1.30;;;30.80;71.10;;;;;;5018772;28;20030;-73
2022/07/23 10:55:15;;;;;;;3.80;1.20;;;31.10;71.10;;;;;;5018018;28;20046;-72
2022/07/23 10:57:49;;;;;;;3.78;1.35;;;31.00;69.90;;;;;;5018919;28;20030;-74
2022/07/23 11:00:24;;;;;;;2.08;1.02;;;31.20;70.20;;;;;;5013006;28;20770;-74
2022/07/23 11:02:52;;;;;;;2.55;1.38;;;31.40;69.90;;;;;;5014946;28;20107;-72
2022/07/23 11:05:38;;;;;;;4.05;2.05;;;31.30;69.60;;;;;;5021742;28;20233;-72
2022/07/23 11:08:04;;;;;;;3.33;1.30;;;31.10;69.80;;;;;;5018822;28;20064;-72
2022/07/23 11:10:50;;;;;;;3.42;1.50;;;31.40;70.40;;;;;;5010207;28;20025;-73
2022/07/23 11:13:22;;;;;;;2.15;1.20;;;31.20;69.60;;;;;;5009483;28;20045;-73
2022/07/23 11:16:05;;;;;;;4.32;2.00;;;31.10;69.70;;;;;;5010304;28;20487;-73
2022/07/23 11:18:40;;;;;;;2.90;1.50;;;31.10;70.50;;;;;;5019399;28;20025;-72
2022/07/23 11:21:21;;;;;;;5.00;1.50;;;31.20;71.10;;;;;;5019408;28;20693;-73
2022/07/23 11:24:06;;;;;;;3.70;1.60;;;31.10;70.80;;;;;;5018046;28;20044;-72
2022/07/23 11:26:41;;;;;;;2.60;1.55;;;31.20;71.30;;;;;;5010391;28;20088;-71
2022/07/23 11:29:40;;;;;;;4.53;1.55;;;31.30;71.10;;;;;;5018763;28;20094;-72
2022/07/23 11:32:21;;;;;;;3.28;1.92;;;31.30;70.80;;;;;;5007574;28;20491;-72
2022/07/23 11:34:51;;;;;;;4.25;1.70;;;31.70;71.10;;;;;;5022791;28;20124;-72
2022/07/23 11:37:35;;;;;;;3.25;1.60;;;32.00;71.70;;;;;;5025208;28;20044;-72
2022/07/23 11:40:04;;;;;;;2.80;1.30;;;32.10;70.60;;;;;;5013557;28;20545;-71
2022/07/23 11:42:30;;;;;;;6.88;1.70;;;32.10;70.60;;;;;;5021502;28;20075;-72
2022/07/23 11:44:56;;;;;;;2.80;1.42;;;32.30;71.30;;;;;;5007185;28;20046;-73
2022/07/23 11:47:24;;;;;;;2.10;1.20;;;32.40;69.80;;;;;;5009392;28;20041;-72
2022/07/23 11:49:57;;;;;;;4.35;1.50;;;32.50;69.20;;;;;;5021770;28;20112;-73
2022/07/23 11:52:24;;;;;;;5.07;1.50;;;32.60;69.30;;;;;;5015016;28;20053;-74
2022/07/23 11:55:03;;;;;;;2.13;1.40;;;33.10;69.80;;;;;;5014603;28;20045;-73
2022/07/23 11:57:32;;;;;;;2.58;1.40;;;33.10;69.30;;;;;;5013642;28;20455;-73
2022/07/23 12:00:07;;;;;;;3.60;1.95;;;33.30;69.20;;;;;;5015591;28;20032;-74
2022/07/23 12:02:33;;;;;;;2.97;1.55;;;33.10;69.20;;;;;;5020631;28;20476;-74
2022/07/23 12:04:59;;;;;;;3.72;1.90;;;32.80;69.10;;;;;;5028006;28;20080;-74
2022/07/23 12:07:37;;;;;;;3.25;1.77;;;32.80;69.40;;;;;;5027903;28;20049;-74
2022/07/23 12:10:10;;;;;;;5.25;1.63;;;32.60;68.80;;;;;;5021978;28;20044;-76
2022/07/23 12:12:37;;;;;;;;;;;32.80;69.10;;;;;;5025814;28;20033;-74
2022/07/23 12:15:04;;;;;;;3.08;1.85;;;33.10;69.20;;;;;;5008294;28;19914;-76
2022/07/23 12:17:32;;;;;;;5.75;1.70;;;33.10;69.70;;;;;;5024557;28;20029;-74
2022/07/23 12:20:00;;;;;;;3.83;1.80;;;33.30;69.00;;;;;;5019650;28;20044;-75
2022/07/23 12:22:33;;;;;;;2.90;1.35;;;33.40;68.30;;;;;;5020950;28;20048;-76
2022/07/23 12:25:02;;;;;;;4.72;1.80;;;33.80;69.00;;;;;;5013197;28;20076;-76
2022/07/23 12:27:28;;;;;;;3.35;1.90;;;33.50;68.70;;;;;;5008307;28;20475;-74
2022/07/23 12:29:54;;;;;;;2.60;1.30;;;33.80;68.70;;;;;;5005976;28;20036;-76
2022/07/23 12:32:26;;;;;;;6.22;1.73;;;33.40;68.10;;;;;;5023238;28;20523;-75
2022/07/23 12:35:12;;;;;;;4.00;1.80;;;33.40;69.00;;;;;;5027868;28;20659;-75
2022/07/23 12:37:43;;;;;;;8.65;1.88;;;33.80;68.90;;;;;;5028363;28;20057;-75
2022/07/23 12:40:25;;;;;;;4.20;1.45;;;33.90;67.60;;;;;;5027872;28;20479;-76
2022/07/23 12:43:11;;;;;;;3.95;1.63;;;33.70;68.10;;;;;;5028844;28;20037;-75
2022/07/23 12:45:48;;;;;;;2.60;1.40;;;34.00;67.90;;;;;;5028234;28;20037;-75
2022/07/23 12:48:22;;;;;;;4.75;1.55;;;34.50;67.70;;;;;;5024639;28;20040;-75
2022/07/23 12:50:52;;;;;;;3.60;1.98;;;34.60;68.60;;;;;;5024714;28;20072;-76
2022/07/23 12:53:21;;;;;;;5.40;1.90;;;34.30;67.00;;;;;;5030155;28;20125;-75
2022/07/23 12:55:48;;;;;;;4.18;1.98;;;34.40;68.30;;;;;;5027379;28;20036;-76